sensor_id;sensor_type;location;lat;lon;timestamp;temperature;humidity
74484;SHT31;62942;52.462;10.846;2023-03-01T00:00:49;-5.5;90.8
74484;SHT31;62942;52.462;10.846;2023-03-01T00:01:59;-5.5;90.8
74484;SHT31;62942;52.462;10.846;2023-03-01T00:03:09;-5.5;90.8
74484;SHT31;62942;52.462;10.846;2023-03-01T00:04:19;-5.5;90.8
74484;SHT31;62942;52.462;10.846;2023-03-01T00:05:29;-5.5;90.9
74484;SHT31;62942;52.462;10.846;2023-03-01T00:06:39;-5.5;90.9
74484;SHT31;62942;52.462;10.846;2023-03-01T00:07:51;-5.5;91
74484;SHT31;62942;52.462;10.846;2023-03-01T00:08:59;-5.5;91.1
74484;SHT31;62942;52.462;10.846;2023-03-01T00:10:10;-5.5;91.2
74484;SHT31;62942;52.462;10.846;2023-03-01T00:11:20;-5.5;91.3
74484;SHT31;62942;52.462;10.846;2023-03-01T00:12:20;-5.5;91.3
74484;SHT31;62942;52.462;10.846;2023-03-01T00:13:29;-5.5;91.4
74484;SHT31;62942;52.462;10.846;2023-03-01T00:14:39;-5.6;91.4
74484;SHT31;62942;52.462;10.846;2023-03-01T00:15:40;-5.6;91.3
74484;SHT31;62942;52.462;10.846;2023-03-01T00:16:49;-5.6;91.2
74484;SHT31;62942;52.462;10.846;2023-03-01T00:17:49;-5.6;91.2
74484;SHT31;62942;52.462;10.846;2023-03-01T00:18:59;-5.6;91.1
74484;SHT31;62942;52.462;10.846;2023-03-01T00:20:10;-5.6;91.1
74484;SHT31;62942;52.462;10.846;2023-03-01T00:21:20;-5.6;91.1
74484;SHT31;62942;52.462;10.846;2023-03-01T00:22:29;-5.6;91.1
74484;SHT31;62942;52.462;10.846;2023-03-01T00:23:40;-5.6;91.2
74484;SHT31;62942;52.462;10.846;2023-03-01T00:24:49;-5.6;91.3
74484;SHT31;62942;52.462;10.846;2023-03-01T00:25:59;-5.6;91.5
74484;SHT31;62942;52.462;10.846;2023-03-01T00:27:09;-5.6;91.5
74484;SHT31;62942;52.462;10.846;2023-03-01T00:28:09;-5.6;91.6
74484;SHT31;62942;52.462;10.846;2023-03-01T00:29:19;-5.6;91.6
74484;SHT31;62942;52.462;10.846;2023-03-01T00:30:29;-5.7;91.5
74484;SHT31;62942;52.462;10.846;2023-03-01T00:31:30;-5.7;91.4
74484;SHT31;62942;52.462;10.846;2023-03-01T00:32:39;-5.7;91.3
74484;SHT31;62942;52.462;10.846;2023-03-01T00:33:52;-5.7;91.2
74484;SHT31;62942;52.462;10.846;2023-03-01T00:34:59;-5.8;91.1
74484;SHT31;62942;52.462;10.846;2023-03-01T00:36:00;-5.8;91
74484;SHT31;62942;52.462;10.846;2023-03-01T00:37:09;-5.8;90.9
74484;SHT31;62942;52.462;10.846;2023-03-01T00:38:19;-5.8;90.9
74484;SHT31;62942;52.462;10.846;2023-03-01T00:39:19;-5.8;90.8
74484;SHT31;62942;52.462;10.846;2023-03-01T00:40:31;-5.8;90.8
74484;SHT31;62942;52.462;10.846;2023-03-01T00:41:29;-5.8;90.8
74484;SHT31;62942;52.462;10.846;2023-03-01T00:42:29;-5.9;90.8
74484;SHT31;62942;52.462;10.846;2023-03-01T00:43:39;-5.9;90.9
74484;SHT31;62942;52.462;10.846;2023-03-01T00:44:49;-5.8;91
74484;SHT31;62942;52.462;10.846;2023-03-01T00:45:49;-5.8;91.1
74484;SHT31;62942;52.462;10.846;2023-03-01T00:46:59;-5.8;91.3
74484;SHT31;62942;52.462;10.846;2023-03-01T00:48:09;-5.8;91.4
74484;SHT31;62942;52.462;10.846;2023-03-01T00:49:19;-5.8;91.6
74484;SHT31;62942;52.462;10.846;2023-03-01T00:50:29;-5.8;91.7
74484;SHT31;62942;52.462;10.846;2023-03-01T00:51:39;-5.8;91.7
74484;SHT31;62942;52.462;10.846;2023-03-01T00:52:51;-5.8;91.7
74484;SHT31;62942;52.462;10.846;2023-03-01T00:54:00;-5.9;91.6
74484;SHT31;62942;52.462;10.846;2023-03-01T00:55:10;-5.9;91.6
74484;SHT31;62942;52.462;10.846;2023-03-01T00:56:19;-5.9;91.4
74484;SHT31;62942;52.462;10.846;2023-03-01T00:57:19;-6;91.4
74484;SHT31;62942;52.462;10.846;2023-03-01T00:58:19;-6;91.3
74484;SHT31;62942;52.462;10.846;2023-03-01T00:59:19;-6;91.2
74484;SHT31;62942;52.462;10.846;2023-03-01T01:00:20;-6;91.1
74484;SHT31;62942;52.462;10.846;2023-03-01T01:01:30;-6;91.1
74484;SHT31;62942;52.462;10.846;2023-03-01T01:02:39;-6;91.1
74484;SHT31;62942;52.462;10.846;2023-03-01T01:03:39;-6;91.1
74484;SHT31;62942;52.462;10.846;2023-03-01T01:04:39;-6;91.3
74484;SHT31;62942;52.462;10.846;2023-03-01T01:05:49;-6;91.3
74484;SHT31;62942;52.462;10.846;2023-03-01T01:06:59;-6;91.4
74484;SHT31;62942;52.462;10.846;2023-03-01T01:08:09;-6;91.6
74484;SHT31;62942;52.462;10.846;2023-03-01T01:09:19;-5.9;91.6
74484;SHT31;62942;52.462;10.846;2023-03-01T01:10:29;-6;91.6
74484;SHT31;62942;52.462;10.846;2023-03-01T01:11:39;-6;91.7
74484;SHT31;62942;52.462;10.846;2023-03-01T01:12:49;-6;91.7
74484;SHT31;62942;52.462;10.846;2023-03-01T01:13:59;-5.9;91.7
74484;SHT31;62942;52.462;10.846;2023-03-01T01:14:59;-5.9;91.7
74484;SHT31;62942;52.462;10.846;2023-03-01T01:16:09;-5.9;91.7
74484;SHT31;62942;52.462;10.846;2023-03-01T01:17:19;-5.9;91.8
74484;SHT31;62942;52.462;10.846;2023-03-01T01:18:29;-5.9;91.8
74484;SHT31;62942;52.462;10.846;2023-03-01T01:19:29;-5.9;91.8
74484;SHT31;62942;52.462;10.846;2023-03-01T01:20:39;-5.9;91.9
74484;SHT31;62942;52.462;10.846;2023-03-01T01:21:39;-5.8;92
74484;SHT31;62942;52.462;10.846;2023-03-01T01:22:49;-5.8;92
74484;SHT31;62942;52.462;10.846;2023-03-01T01:23:59;-5.8;92.1
74484;SHT31;62942;52.462;10.846;2023-03-01T01:25:09;-5.8;92.1
74484;SHT31;62942;52.462;10.846;2023-03-01T01:26:20;-5.8;92.2
74484;SHT31;62942;52.462;10.846;2023-03-01T01:27:29;-5.8;92.2
74484;SHT31;62942;52.462;10.846;2023-03-01T01:28:39;-5.8;92.3
74484;SHT31;62942;52.462;10.846;2023-03-01T01:29:49;-5.7;92.3
74484;SHT31;62942;52.462;10.846;2023-03-01T01:30:49;-5.7;92.4
74484;SHT31;62942;52.462;10.846;2023-03-01T01:31:49;-5.7;92.4
74484;SHT31;62942;52.462;10.846;2023-03-01T01:32:49;-5.6;92.5
74484;SHT31;62942;52.462;10.846;2023-03-01T01:34:00;-5.6;92.5
74484;SHT31;62942;52.462;10.846;2023-03-01T01:34:59;-5.7;92.6
74484;SHT31;62942;52.462;10.846;2023-03-01T01:36:10;-5.7;92.6
74484;SHT31;62942;52.462;10.846;2023-03-01T01:37:19;-5.7;92.6
74484;SHT31;62942;52.462;10.846;2023-03-01T01:38:29;-5.7;92.6
74484;SHT31;62942;52.462;10.846;2023-03-01T01:39:39;-5.7;92.6
74484;SHT31;62942;52.462;10.846;2023-03-01T01:40:42;-5.7;92.5
74484;SHT31;62942;52.462;10.846;2023-03-01T01:41:49;-5.8;92.5
74484;SHT31;62942;52.462;10.846;2023-03-01T01:42:59;-5.8;92.4
74484;SHT31;62942;52.462;10.846;2023-03-01T01:44:16;-5.8;92.3
74484;SHT31;62942;52.462;10.846;2023-03-01T01:45:41;-5.9;92.2
74484;SHT31;62942;52.462;10.846;2023-03-01T01:46:21;-5.9;92.1
74484;SHT31;62942;52.462;10.846;2023-03-01T01:47:20;-5.9;92
74484;SHT31;62942;52.462;10.846;2023-03-01T01:48:32;-5.9;91.9
74484;SHT31;62942;52.462;10.846;2023-03-01T01:49:40;-5.9;91.9
74484;SHT31;62942;52.462;10.846;2023-03-01T01:50:55;-5.9;91.9
74484;SHT31;62942;52.462;10.846;2023-03-01T01:52:00;-6;91.8
74484;SHT31;62942;52.462;10.846;2023-03-01T01:53:10;-6;91.8
74484;SHT31;62942;52.462;10.846;2023-03-01T01:54:20;-6;91.7
74484;SHT31;62942;52.462;10.846;2023-03-01T01:55:20;-6.1;91.6
74484;SHT31;62942;52.462;10.846;2023-03-01T01:56:29;-6.1;91.5
74484;SHT31;62942;52.462;10.846;2023-03-01T01:57:40;-6.1;91.4
74484;SHT31;62942;52.462;10.846;2023-03-01T01:58:39;-6.1;91.4
74484;SHT31;62942;52.462;10.846;2023-03-01T01:59:50;-6.1;91.4
74484;SHT31;62942;52.462;10.846;2023-03-01T02:00:59;-6;91.6
74484;SHT31;62942;52.462;10.846;2023-03-01T02:02:09;-6;91.7
74484;SHT31;62942;52.462;10.846;2023-03-01T02:03:20;-6;91.9
74484;SHT31;62942;52.462;10.846;2023-03-01T02:04:19;-5.9;92
74484;SHT31;62942;52.462;10.846;2023-03-01T02:05:32;-5.9;92.2
74484;SHT31;62942;52.462;10.846;2023-03-01T02:06:41;-5.9;92.3
74484;SHT31;62942;52.462;10.846;2023-03-01T02:07:49;-5.9;92.4
74484;SHT31;62942;52.462;10.846;2023-03-01T02:09:00;-5.9;92.5
74484;SHT31;62942;52.462;10.846;2023-03-01T02:09:59;-5.9;92.5
74484;SHT31;62942;52.462;10.846;2023-03-01T02:11:09;-5.9;92.5
74484;SHT31;62942;52.462;10.846;2023-03-01T02:12:20;-6;92.5
74484;SHT31;62942;52.462;10.846;2023-03-01T02:13:19;-6;92.5
74484;SHT31;62942;52.462;10.846;2023-03-01T02:14:29;-6;92.4
74484;SHT31;62942;52.462;10.846;2023-03-01T02:15:40;-6.1;92.2
74484;SHT31;62942;52.462;10.846;2023-03-01T02:16:49;-6.1;92.2
74484;SHT31;62942;52.462;10.846;2023-03-01T02:17:59;-6.1;92.1
74484;SHT31;62942;52.462;10.846;2023-03-01T02:19:09;-6.1;92.2
74484;SHT31;62942;52.462;10.846;2023-03-01T02:20:20;-6;92.2
74484;SHT31;62942;52.462;10.846;2023-03-01T02:21:30;-6;92.3
74484;SHT31;62942;52.462;10.846;2023-03-01T02:22:30;-6;92.4
74484;SHT31;62942;52.462;10.846;2023-03-01T02:23:39;-5.9;92.5
74484;SHT31;62942;52.462;10.846;2023-03-01T02:24:52;-5.9;92.5
74484;SHT31;62942;52.462;10.846;2023-03-01T02:25:50;-5.9;92.6
74484;SHT31;62942;52.462;10.846;2023-03-01T02:26:59;-5.9;92.7
74484;SHT31;62942;52.462;10.846;2023-03-01T02:29:19;-6;92.8
74484;SHT31;62942;52.462;10.846;2023-03-01T02:30:29;-6;92.7
74484;SHT31;62942;52.462;10.846;2023-03-01T02:31:39;-6;92.7
74484;SHT31;62942;52.462;10.846;2023-03-01T02:32:51;-6.1;92.6
74484;SHT31;62942;52.462;10.846;2023-03-01T02:33:49;-6.1;92.6
74484;SHT31;62942;52.462;10.846;2023-03-01T02:34:59;-6.1;92.5
74484;SHT31;62942;52.462;10.846;2023-03-01T02:36:10;-6.1;92.4
74484;SHT31;62942;52.462;10.846;2023-03-01T02:37:19;-6.2;92.3
74484;SHT31;62942;52.462;10.846;2023-03-01T02:38:29;-6.1;92.3
74484;SHT31;62942;52.462;10.846;2023-03-01T02:39:39;-6.2;92.2
74484;SHT31;62942;52.462;10.846;2023-03-01T02:40:50;-6.2;92.2
74484;SHT31;62942;52.462;10.846;2023-03-01T02:41:59;-6.2;92.1
74484;SHT31;62942;52.462;10.846;2023-03-01T02:42:59;-6.2;92.1
74484;SHT31;62942;52.462;10.846;2023-03-01T02:44:09;-6.2;92.1
74484;SHT31;62942;52.462;10.846;2023-03-01T02:45:09;-6.2;92.1
74484;SHT31;62942;52.462;10.846;2023-03-01T02:46:13;-6.3;92.1
74484;SHT31;62942;52.462;10.846;2023-03-01T02:47:19;-6.3;92.1
74484;SHT31;62942;52.462;10.846;2023-03-01T02:48:38;-6.3;92.1
74484;SHT31;62942;52.462;10.846;2023-03-01T02:49:39;-6.3;92.1
74484;SHT31;62942;52.462;10.846;2023-03-01T02:50:44;-6.4;92
74484;SHT31;62942;52.462;10.846;2023-03-01T02:51:56;-6.4;92
74484;SHT31;62942;52.462;10.846;2023-03-01T02:53:00;-6.4;91.9
74484;SHT31;62942;52.462;10.846;2023-03-01T02:54:03;-6.4;91.9
74484;SHT31;62942;52.462;10.846;2023-03-01T02:55:10;-6.5;91.9
74484;SHT31;62942;52.462;10.846;2023-03-01T02:56:19;-6.4;91.9
74484;SHT31;62942;52.462;10.846;2023-03-01T02:57:30;-6.5;91.9
74484;SHT31;62942;52.462;10.846;2023-03-01T02:58:29;-6.4;92
74484;SHT31;62942;52.462;10.846;2023-03-01T02:59:39;-6.5;92
74484;SHT31;62942;52.462;10.846;2023-03-01T03:00:49;-6.5;92.1
74484;SHT31;62942;52.462;10.846;2023-03-01T03:02:00;-6.5;92.1
74484;SHT31;62942;52.462;10.846;2023-03-01T03:03:09;-6.5;92.1
74484;SHT31;62942;52.462;10.846;2023-03-01T03:04:19;-6.5;92.1
74484;SHT31;62942;52.462;10.846;2023-03-01T03:05:30;-6.5;92.1
74484;SHT31;62942;52.462;10.846;2023-03-01T03:06:39;-6.5;92.2
74484;SHT31;62942;52.462;10.846;2023-03-01T03:07:49;-6.5;92.3
74484;SHT31;62942;52.462;10.846;2023-03-01T03:08:49;-6.5;92.3
74484;SHT31;62942;52.462;10.846;2023-03-01T03:09:49;-6.5;92.3
74484;SHT31;62942;52.462;10.846;2023-03-01T03:10:59;-6.5;92.4
74484;SHT31;62942;52.462;10.846;2023-03-01T03:12:09;-6.6;92.4
74484;SHT31;62942;52.462;10.846;2023-03-01T03:13:10;-6.6;92.4
74484;SHT31;62942;52.462;10.846;2023-03-01T03:14:10;-6.6;92.4
74484;SHT31;62942;52.462;10.846;2023-03-01T03:15:19;-6.6;92.3
74484;SHT31;62942;52.462;10.846;2023-03-01T03:16:29;-6.6;92.3
74484;SHT31;62942;52.462;10.846;2023-03-01T03:17:29;-6.6;92.3
74484;SHT31;62942;52.462;10.846;2023-03-01T03:18:39;-6.7;92.3
74484;SHT31;62942;52.462;10.846;2023-03-01T03:19:49;-6.6;92.2
74484;SHT31;62942;52.462;10.846;2023-03-01T03:20:59;-6.7;92.2
74484;SHT31;62942;52.462;10.846;2023-03-01T03:22:09;-6.7;92.2
74484;SHT31;62942;52.462;10.846;2023-03-01T03:23:19;-6.7;92.2
74484;SHT31;62942;52.462;10.846;2023-03-01T03:24:19;-6.7;92.2
74484;SHT31;62942;52.462;10.846;2023-03-01T03:25:20;-6.7;92.2
74484;SHT31;62942;52.462;10.846;2023-03-01T03:26:29;-6.7;92.3
74484;SHT31;62942;52.462;10.846;2023-03-01T03:27:40;-6.7;92.2
74484;SHT31;62942;52.462;10.846;2023-03-01T03:28:39;-6.7;92.3
74484;SHT31;62942;52.462;10.846;2023-03-01T03:29:49;-6.7;92.4
74484;SHT31;62942;52.462;10.846;2023-03-01T03:30:49;-6.7;92.4
74484;SHT31;62942;52.462;10.846;2023-03-01T03:31:59;-6.8;92.4
74484;SHT31;62942;52.462;10.846;2023-03-01T03:32:59;-6.8;92.4
74484;SHT31;62942;52.462;10.846;2023-03-01T03:33:59;-6.8;92.4
74484;SHT31;62942;52.462;10.846;2023-03-01T03:35:09;-6.8;92.4
74484;SHT31;62942;52.462;10.846;2023-03-01T03:36:20;-6.8;92.4
74484;SHT31;62942;52.462;10.846;2023-03-01T03:37:29;-6.9;92.4
74484;SHT31;62942;52.462;10.846;2023-03-01T03:38:39;-6.9;92.4
74484;SHT31;62942;52.462;10.846;2023-03-01T03:39:39;-6.9;92.3
74484;SHT31;62942;52.462;10.846;2023-03-01T03:40:50;-6.9;92.3
74484;SHT31;62942;52.462;10.846;2023-03-01T03:41:49;-6.9;92.3
74484;SHT31;62942;52.462;10.846;2023-03-01T03:42:59;-6.9;92.3
74484;SHT31;62942;52.462;10.846;2023-03-01T03:44:09;-6.9;92.3
74484;SHT31;62942;52.462;10.846;2023-03-01T03:45:09;-6.9;92.3
74484;SHT31;62942;52.462;10.846;2023-03-01T03:46:19;-6.8;92.4
74484;SHT31;62942;52.462;10.846;2023-03-01T03:47:29;-6.8;92.4
74484;SHT31;62942;52.462;10.846;2023-03-01T03:48:40;-6.7;92.5
74484;SHT31;62942;52.462;10.846;2023-03-01T03:49:49;-6.7;92.5
74484;SHT31;62942;52.462;10.846;2023-03-01T03:50:59;-6.7;92.5
74484;SHT31;62942;52.462;10.846;2023-03-01T03:52:09;-6.7;92.6
74484;SHT31;62942;52.462;10.846;2023-03-01T03:53:11;-6.7;92.6
74484;SHT31;62942;52.462;10.846;2023-03-01T03:54:19;-6.7;92.6
74484;SHT31;62942;52.462;10.846;2023-03-01T03:55:19;-6.7;92.6
74484;SHT31;62942;52.462;10.846;2023-03-01T03:56:29;-6.7;92.6
74484;SHT31;62942;52.462;10.846;2023-03-01T03:57:39;-6.7;92.6
74484;SHT31;62942;52.462;10.846;2023-03-01T03:58:39;-6.7;92.6
74484;SHT31;62942;52.462;10.846;2023-03-01T03:59:39;-6.7;92.5
74484;SHT31;62942;52.462;10.846;2023-03-01T04:00:50;-6.7;92.5
74484;SHT31;62942;52.462;10.846;2023-03-01T04:01:59;-6.7;92.5
74484;SHT31;62942;52.462;10.846;2023-03-01T04:03:10;-6.7;92.6
74484;SHT31;62942;52.462;10.846;2023-03-01T04:04:19;-6.7;92.6
74484;SHT31;62942;52.462;10.846;2023-03-01T04:05:29;-6.7;92.6
74484;SHT31;62942;52.462;10.846;2023-03-01T04:06:29;-6.7;92.7
74484;SHT31;62942;52.462;10.846;2023-03-01T04:07:39;-6.7;92.7
74484;SHT31;62942;52.462;10.846;2023-03-01T04:08:39;-6.7;92.7
74484;SHT31;62942;52.462;10.846;2023-03-01T04:09:49;-6.7;92.7
74484;SHT31;62942;52.462;10.846;2023-03-01T04:11:00;-6.7;92.7
74484;SHT31;62942;52.462;10.846;2023-03-01T04:11:59;-6.7;92.7
74484;SHT31;62942;52.462;10.846;2023-03-01T04:12:59;-6.8;92.7
74484;SHT31;62942;52.462;10.846;2023-03-01T04:14:09;-6.8;92.7
74484;SHT31;62942;52.462;10.846;2023-03-01T04:15:10;-6.8;92.7
74484;SHT31;62942;52.462;10.846;2023-03-01T04:16:19;-6.7;92.7
74484;SHT31;62942;52.462;10.846;2023-03-01T04:17:29;-6.7;92.7
74484;SHT31;62942;52.462;10.846;2023-03-01T04:18:39;-6.7;92.9
74484;SHT31;62942;52.462;10.846;2023-03-01T04:19:49;-6.7;92.9
74484;SHT31;62942;52.462;10.846;2023-03-01T04:20:49;-6.7;93
74484;SHT31;62942;52.462;10.846;2023-03-01T04:21:59;-6.6;93.1
74484;SHT31;62942;52.462;10.846;2023-03-01T04:23:10;-6.7;93.1
74484;SHT31;62942;52.462;10.846;2023-03-01T04:24:19;-6.7;93.2
74484;SHT31;62942;52.462;10.846;2023-03-01T04:25:19;-6.7;93.2
74484;SHT31;62942;52.462;10.846;2023-03-01T04:26:19;-6.7;93.3
74484;SHT31;62942;52.462;10.846;2023-03-01T04:27:29;-6.7;93.3
74484;SHT31;62942;52.462;10.846;2023-03-01T04:28:30;-6.7;93.3
74484;SHT31;62942;52.462;10.846;2023-03-01T04:29:39;-6.7;93.3
74484;SHT31;62942;52.462;10.846;2023-03-01T04:30:39;-6.7;93.3
74484;SHT31;62942;52.462;10.846;2023-03-01T04:31:49;-6.7;93.3
74484;SHT31;62942;52.462;10.846;2023-03-01T04:32:59;-6.7;93.3
74484;SHT31;62942;52.462;10.846;2023-03-01T04:33:59;-6.7;93.3
74484;SHT31;62942;52.462;10.846;2023-03-01T04:34:59;-6.7;93.3
74484;SHT31;62942;52.462;10.846;2023-03-01T04:36:09;-6.8;93.3
74484;SHT31;62942;52.462;10.846;2023-03-01T04:37:19;-6.8;93.3
74484;SHT31;62942;52.462;10.846;2023-03-01T04:38:29;-6.8;93.3
74484;SHT31;62942;52.462;10.846;2023-03-01T04:39:29;-6.8;93.3
74484;SHT31;62942;52.462;10.846;2023-03-01T04:40:39;-6.8;93.3
74484;SHT31;62942;52.462;10.846;2023-03-01T04:41:49;-6.8;93.3
74484;SHT31;62942;52.462;10.846;2023-03-01T04:42:49;-6.8;93.3
74484;SHT31;62942;52.462;10.846;2023-03-01T04:43:59;-6.8;93.3
74484;SHT31;62942;52.462;10.846;2023-03-01T04:45:09;-6.8;93.4
74484;SHT31;62942;52.462;10.846;2023-03-01T04:46:20;-6.8;93.4
74484;SHT31;62942;52.462;10.846;2023-03-01T04:47:19;-6.8;93.4
74484;SHT31;62942;52.462;10.846;2023-03-01T04:48:19;-6.8;93.4
74484;SHT31;62942;52.462;10.846;2023-03-01T04:49:29;-6.8;93.4
74484;SHT31;62942;52.462;10.846;2023-03-01T04:50:39;-6.9;93.4
74484;SHT31;62942;52.462;10.846;2023-03-01T04:51:49;-6.9;93.4
74484;SHT31;62942;52.462;10.846;2023-03-01T04:52:49;-6.9;93.3
74484;SHT31;62942;52.462;10.846;2023-03-01T04:53:59;-7;93.2
74484;SHT31;62942;52.462;10.846;2023-03-01T04:55:09;-7;93.1
74484;SHT31;62942;52.462;10.846;2023-03-01T04:56:19;-7;93
74484;SHT31;62942;52.462;10.846;2023-03-01T04:57:29;-7;92.9
74484;SHT31;62942;52.462;10.846;2023-03-01T04:58:39;-7;92.8
74484;SHT31;62942;52.462;10.846;2023-03-01T04:59:39;-7;92.8
74484;SHT31;62942;52.462;10.846;2023-03-01T05:00:49;-7;92.8
74484;SHT31;62942;52.462;10.846;2023-03-01T05:01:59;-7.1;92.8
74484;SHT31;62942;52.462;10.846;2023-03-01T05:03:09;-7.1;92.8
74484;SHT31;62942;52.462;10.846;2023-03-01T05:04:19;-7.1;92.8
74484;SHT31;62942;52.462;10.846;2023-03-01T05:05:20;-7.1;92.9
74484;SHT31;62942;52.462;10.846;2023-03-01T05:06:29;-7;92.8
74484;SHT31;62942;52.462;10.846;2023-03-01T05:07:29;-7;92.8
74484;SHT31;62942;52.462;10.846;2023-03-01T05:08:39;-7.1;92.8
74484;SHT31;62942;52.462;10.846;2023-03-01T05:09:49;-7.1;92.8
74484;SHT31;62942;52.462;10.846;2023-03-01T05:10:49;-7.1;92.9
74484;SHT31;62942;52.462;10.846;2023-03-01T05:11:49;-7.1;92.8
74484;SHT31;62942;52.462;10.846;2023-03-01T05:12:59;-7.1;92.8
74484;SHT31;62942;52.462;10.846;2023-03-01T05:14:09;-7.1;92.8
74484;SHT31;62942;52.462;10.846;2023-03-01T05:15:09;-7.1;92.7
74484;SHT31;62942;52.462;10.846;2023-03-01T05:16:19;-7.2;92.8
74484;SHT31;62942;52.462;10.846;2023-03-01T05:17:29;-7.2;92.8
74484;SHT31;62942;52.462;10.846;2023-03-01T05:18:39;-7.2;92.7
74484;SHT31;62942;52.462;10.846;2023-03-01T05:19:49;-7.2;92.7
74484;SHT31;62942;52.462;10.846;2023-03-01T05:21:02;-7.1;92.7
74484;SHT31;62942;52.462;10.846;2023-03-01T05:21:59;-7.1;92.8
74484;SHT31;62942;52.462;10.846;2023-03-01T05:23:09;-6.9;92.9
74484;SHT31;62942;52.462;10.846;2023-03-01T05:24:19;-6.9;93
74484;SHT31;62942;52.462;10.846;2023-03-01T05:25:19;-6.8;93.1
74484;SHT31;62942;52.462;10.846;2023-03-01T05:26:29;-6.8;93.2
74484;SHT31;62942;52.462;10.846;2023-03-01T05:27:29;-6.7;93.3
74484;SHT31;62942;52.462;10.846;2023-03-01T05:28:39;-6.7;93.4
74484;SHT31;62942;52.462;10.846;2023-03-01T05:29:39;-6.7;93.5
74484;SHT31;62942;52.462;10.846;2023-03-01T05:30:49;-6.7;93.6
74484;SHT31;62942;52.462;10.846;2023-03-01T05:31:59;-6.7;93.6
74484;SHT31;62942;52.462;10.846;2023-03-01T05:33:09;-6.7;93.7
74484;SHT31;62942;52.462;10.846;2023-03-01T05:34:19;-6.7;93.7
74484;SHT31;62942;52.462;10.846;2023-03-01T05:35:29;-6.7;93.7
74484;SHT31;62942;52.462;10.846;2023-03-01T05:36:39;-6.7;93.7
74484;SHT31;62942;52.462;10.846;2023-03-01T05:37:49;-6.7;93.7
74484;SHT31;62942;52.462;10.846;2023-03-01T05:38:59;-6.7;93.7
74484;SHT31;62942;52.462;10.846;2023-03-01T05:39:59;-6.7;93.7
74484;SHT31;62942;52.462;10.846;2023-03-01T05:41:13;-6.7;93.7
74484;SHT31;62942;52.462;10.846;2023-03-01T05:42:19;-6.7;93.7
74484;SHT31;62942;52.462;10.846;2023-03-01T05:43:19;-6.7;93.7
74484;SHT31;62942;52.462;10.846;2023-03-01T05:44:29;-6.7;93.7
74484;SHT31;62942;52.462;10.846;2023-03-01T05:45:29;-6.7;93.7
74484;SHT31;62942;52.462;10.846;2023-03-01T05:46:39;-6.7;93.7
74484;SHT31;62942;52.462;10.846;2023-03-01T05:47:49;-6.7;93.7
74484;SHT31;62942;52.462;10.846;2023-03-01T05:48:49;-6.8;93.7
74484;SHT31;62942;52.462;10.846;2023-03-01T05:49:59;-6.9;93.7
74484;SHT31;62942;52.462;10.846;2023-03-01T05:50:59;-6.9;93.6
74484;SHT31;62942;52.462;10.846;2023-03-01T05:52:09;-7;93.6
74484;SHT31;62942;52.462;10.846;2023-03-01T05:53:19;-7;93.4
74484;SHT31;62942;52.462;10.846;2023-03-01T05:54:19;-7;93.2
74484;SHT31;62942;52.462;10.846;2023-03-01T05:55:29;-7.1;93
74484;SHT31;62942;52.462;10.846;2023-03-01T05:56:29;-7.1;92.9
74484;SHT31;62942;52.462;10.846;2023-03-01T05:57:39;-7.1;92.7
74484;SHT31;62942;52.462;10.846;2023-03-01T05:58:49;-7.1;92.6
74484;SHT31;62942;52.462;10.846;2023-03-01T05:59:49;-7.2;92.5
74484;SHT31;62942;52.462;10.846;2023-03-01T06:00:59;-7.2;92.5
74484;SHT31;62942;52.462;10.846;2023-03-01T06:02:09;-7.2;92.4
74484;SHT31;62942;52.462;10.846;2023-03-01T06:03:09;-7.2;92.4
74484;SHT31;62942;52.462;10.846;2023-03-01T06:04:19;-7.2;92.4
74484;SHT31;62942;52.462;10.846;2023-03-01T06:05:29;-7.2;92.5
74484;SHT31;62942;52.462;10.846;2023-03-01T06:06:29;-7.2;92.5
74484;SHT31;62942;52.462;10.846;2023-03-01T06:07:39;-7.2;92.6
74484;SHT31;62942;52.462;10.846;2023-03-01T06:08:49;-7.2;92.7
74484;SHT31;62942;52.462;10.846;2023-03-01T06:09:49;-7.1;92.8
74484;SHT31;62942;52.462;10.846;2023-03-01T06:10:59;-7.1;92.9
74484;SHT31;62942;52.462;10.846;2023-03-01T06:12:09;-7.1;93
74484;SHT31;62942;52.462;10.846;2023-03-01T06:13:19;-7.2;93.1
74484;SHT31;62942;52.462;10.846;2023-03-01T06:14:19;-7.2;93.1
74484;SHT31;62942;52.462;10.846;2023-03-01T06:15:29;-7.2;93.2
74484;SHT31;62942;52.462;10.846;2023-03-01T06:16:29;-7.1;93.2
74484;SHT31;62942;52.462;10.846;2023-03-01T06:17:39;-7.1;93.2
74484;SHT31;62942;52.462;10.846;2023-03-01T06:18:49;-7.1;93.3
74484;SHT31;62942;52.462;10.846;2023-03-01T06:19:49;-7;93.3
74484;SHT31;62942;52.462;10.846;2023-03-01T06:20:59;-6.9;93.4
74484;SHT31;62942;52.462;10.846;2023-03-01T06:21:59;-6.9;93.4
74484;SHT31;62942;52.462;10.846;2023-03-01T06:23:09;-6.8;93.4
74484;SHT31;62942;52.462;10.846;2023-03-01T06:24:19;-6.7;93.5
74484;SHT31;62942;52.462;10.846;2023-03-01T06:25:19;-6.6;93.5
74484;SHT31;62942;52.462;10.846;2023-03-01T06:26:29;-6.6;93.5
74484;SHT31;62942;52.462;10.846;2023-03-01T06:27:39;-6.5;93.5
74484;SHT31;62942;52.462;10.846;2023-03-01T06:28:39;-6.5;93.5
74484;SHT31;62942;52.462;10.846;2023-03-01T06:29:49;-6.4;93.5
74484;SHT31;62942;52.462;10.846;2023-03-01T06:30:59;-6.5;93.4
74484;SHT31;62942;52.462;10.846;2023-03-01T06:31:59;-6.4;93.4
74484;SHT31;62942;52.462;10.846;2023-03-01T06:33:09;-6.4;93.4
74484;SHT31;62942;52.462;10.846;2023-03-01T06:34:19;-6.4;93.3
74484;SHT31;62942;52.462;10.846;2023-03-01T06:35:29;-6.4;93.3
74484;SHT31;62942;52.462;10.846;2023-03-01T06:36:39;-6.4;93.2
74484;SHT31;62942;52.462;10.846;2023-03-01T06:37:49;-6.4;93.1
74484;SHT31;62942;52.462;10.846;2023-03-01T06:38:49;-6.3;93.1
74484;SHT31;62942;52.462;10.846;2023-03-01T06:39:49;-6.3;93
74484;SHT31;62942;52.462;10.846;2023-03-01T06:40:59;-6.3;93
74484;SHT31;62942;52.462;10.846;2023-03-01T06:42:09;-6.3;93
74484;SHT31;62942;52.462;10.846;2023-03-01T06:43:09;-6.3;92.9
74484;SHT31;62942;52.462;10.846;2023-03-01T06:44:19;-6.3;92.9
74484;SHT31;62942;52.462;10.846;2023-03-01T06:45:29;-6.2;92.9
74484;SHT31;62942;52.462;10.846;2023-03-01T06:46:39;-6.1;92.8
74484;SHT31;62942;52.462;10.846;2023-03-01T06:47:39;-6.1;92.9
74484;SHT31;62942;52.462;10.846;2023-03-01T06:48:49;-6;92.9
74484;SHT31;62942;52.462;10.846;2023-03-01T06:49:59;-6;92.9
74484;SHT31;62942;52.462;10.846;2023-03-01T06:51:09;-5.9;93
74484;SHT31;62942;52.462;10.846;2023-03-01T06:52:19;-5.8;93.1
74484;SHT31;62942;52.462;10.846;2023-03-01T06:53:29;-5.8;93.1
74484;SHT31;62942;52.462;10.846;2023-03-01T06:54:39;-5.7;93.2
74484;SHT31;62942;52.462;10.846;2023-03-01T06:55:39;-5.6;93.2
74484;SHT31;62942;52.462;10.846;2023-03-01T06:56:39;-5.6;93.2
74484;SHT31;62942;52.462;10.846;2023-03-01T06:57:39;-5.5;93.2
74484;SHT31;62942;52.462;10.846;2023-03-01T06:58:39;-5.4;93.2
74484;SHT31;62942;52.462;10.846;2023-03-01T06:59:49;-5.3;93.2
74484;SHT31;62942;52.462;10.846;2023-03-01T07:00:59;-5.2;93.1
74484;SHT31;62942;52.462;10.846;2023-03-01T07:01:59;-5.1;93.1
74484;SHT31;62942;52.462;10.846;2023-03-01T07:03:09;-4.9;93
74484;SHT31;62942;52.462;10.846;2023-03-01T07:04:09;-4.8;92.9
74484;SHT31;62942;52.462;10.846;2023-03-01T07:05:19;-4.6;92.9
74484;SHT31;62942;52.462;10.846;2023-03-01T07:06:19;-4.4;92.7
74484;SHT31;62942;52.462;10.846;2023-03-01T07:07:29;-4.2;92.6
74484;SHT31;62942;52.462;10.846;2023-03-01T07:08:29;-4.1;92.4
74484;SHT31;62942;52.462;10.846;2023-03-01T07:09:39;-3.9;92.2
74484;SHT31;62942;52.462;10.846;2023-03-01T07:10:54;-3.6;91.9
74484;SHT31;62942;52.462;10.846;2023-03-01T07:11:59;-3.4;91.6
74484;SHT31;62942;52.462;10.846;2023-03-01T07:12:59;-3.3;91.3
74484;SHT31;62942;52.462;10.846;2023-03-01T07:14:09;-3.1;90.9